sensor_id;sensor_type;location;lat;lon;timestamp;temperature;humidity
67799;SHT30;54596;43.216;27.904;2023-07-29T00:00:52;20.36;82.76
67799;SHT30;54596;43.216;27.904;2023-07-29T00:03:17;20.40;82.73
67799;SHT30;54596;43.216;27.904;2023-07-29T00:05:43;20.43;82.82
67799;SHT30;54596;43.216;27.904;2023-07-29T00:08:08;20.44;82.80
67799;SHT30;54596;43.216;27.904;2023-07-29T00:10:37;20.39;82.76
67799;SHT30;54596;43.216;27.904;2023-07-29T00:13:03;20.40;82.73
67799;SHT30;54596;43.216;27.904;2023-07-29T00:15:29;20.40;82.69
67799;SHT30;54596;43.216;27.904;2023-07-29T00:17:54;20.36;82.79
67799;SHT30;54596;43.216;27.904;2023-07-29T00:20:20;20.26;83.48
67799;SHT30;54596;43.216;27.904;2023-07-29T00:22:45;20.25;83.46
67799;SHT30;54596;43.216;27.904;2023-07-29T00:25:11;20.26;83.42
67799;SHT30;54596;43.216;27.904;2023-07-29T00:27:36;20.29;83.59
67799;SHT30;54596;43.216;27.904;2023-07-29T00:30:02;20.30;83.93
67799;SHT30;54596;43.216;27.904;2023-07-29T00:32:29;20.27;84.87
67799;SHT30;54596;43.216;27.904;2023-07-29T00:34:54;20.23;85.51
67799;SHT30;54596;43.216;27.904;2023-07-29T00:37:20;20.22;85.65
67799;SHT30;54596;43.216;27.904;2023-07-29T00:39:46;20.19;85.82
67799;SHT30;54596;43.216;27.904;2023-07-29T00:42:12;20.12;86.09
67799;SHT30;54596;43.216;27.904;2023-07-29T00:44:37;20.08;86.09
67799;SHT30;54596;43.216;27.904;2023-07-29T00:47:04;19.99;86.45
67799;SHT30;54596;43.216;27.904;2023-07-29T00:49:31;19.95;86.61
67799;SHT30;54596;43.216;27.904;2023-07-29T00:51:57;19.91;86.80
67799;SHT30;54596;43.216;27.904;2023-07-29T00:54:23;19.86;86.98
67799;SHT30;54596;43.216;27.904;2023-07-29T00:56:48;19.81;87.28
67799;SHT30;54596;43.216;27.904;2023-07-29T00:59:14;19.74;87.52
67799;SHT30;54596;43.216;27.904;2023-07-29T01:01:40;19.67;87.64
67799;SHT30;54596;43.216;27.904;2023-07-29T01:04:06;19.63;87.73
67799;SHT30;54596;43.216;27.904;2023-07-29T01:09:53;19.53;88.05
67799;SHT30;54596;43.216;27.904;2023-07-29T01:12:27;19.50;88.27
67799;SHT30;54596;43.216;27.904;2023-07-29T01:17:44;19.38;88.22
67799;SHT30;54596;43.216;27.904;2023-07-29T01:20:14;19.33;88.30
67799;SHT30;54596;43.216;27.904;2023-07-29T01:22:40;19.26;88.35
67799;SHT30;54596;43.216;27.904;2023-07-29T01:25:06;19.20;88.27
67799;SHT30;54596;43.216;27.904;2023-07-29T01:27:32;19.20;88.35
67799;SHT30;54596;43.216;27.904;2023-07-29T01:29:58;19.19;88.18
67799;SHT30;54596;43.216;27.904;2023-07-29T01:32:46;19.19;88.25
67799;SHT30;54596;43.216;27.904;2023-07-29T01:37:56;19.18;88.20
67799;SHT30;54596;43.216;27.904;2023-07-29T01:40:26;19.13;88.23
67799;SHT30;54596;43.216;27.904;2023-07-29T01:42:52;19.15;88.31
67799;SHT30;54596;43.216;27.904;2023-07-29T01:45:18;19.09;88.38
67799;SHT30;54596;43.216;27.904;2023-07-29T01:47:44;19.06;88.29
67799;SHT30;54596;43.216;27.904;2023-07-29T01:50:09;19.01;88.44
67799;SHT30;54596;43.216;27.904;2023-07-29T01:52:35;19.01;88.37
67799;SHT30;54596;43.216;27.904;2023-07-29T01:55:01;19.01;88.26
67799;SHT30;54596;43.216;27.904;2023-07-29T01:57:27;18.99;88.14
67799;SHT30;54596;43.216;27.904;2023-07-29T01:59:52;18.95;88.00
67799;SHT30;54596;43.216;27.904;2023-07-29T02:02:18;18.88;88.03
67799;SHT30;54596;43.216;27.904;2023-07-29T02:04:43;18.85;88.27
67799;SHT30;54596;43.216;27.904;2023-07-29T02:07:10;18.83;88.46
67799;SHT30;54596;43.216;27.904;2023-07-29T02:09:35;18.83;88.58
67799;SHT30;54596;43.216;27.904;2023-07-29T02:12:01;18.71;88.70
67799;SHT30;54596;43.216;27.904;2023-07-29T02:14:27;18.74;88.80
67799;SHT30;54596;43.216;27.904;2023-07-29T02:16:53;18.69;88.93
67799;SHT30;54596;43.216;27.904;2023-07-29T02:19:18;18.71;88.96
67799;SHT30;54596;43.216;27.904;2023-07-29T02:21:44;18.67;89.15
67799;SHT30;54596;43.216;27.904;2023-07-29T02:24:09;18.67;89.20
67799;SHT30;54596;43.216;27.904;2023-07-29T02:26:35;18.65;89.22
67799;SHT30;54596;43.216;27.904;2023-07-29T02:29:00;18.64;89.14
67799;SHT30;54596;43.216;27.904;2023-07-29T02:31:26;18.61;89.01
67799;SHT30;54596;43.216;27.904;2023-07-29T02:33:52;18.56;88.89
67799;SHT30;54596;43.216;27.904;2023-07-29T02:36:18;18.49;88.88
67799;SHT30;54596;43.216;27.904;2023-07-29T02:38:44;18.53;88.93
67799;SHT30;54596;43.216;27.904;2023-07-29T02:41:10;18.50;88.90
67799;SHT30;54596;43.216;27.904;2023-07-29T02:43:37;18.49;88.95
67799;SHT30;54596;43.216;27.904;2023-07-29T02:46:03;18.50;88.99
67799;SHT30;54596;43.216;27.904;2023-07-29T02:48:29;18.49;88.99
67799;SHT30;54596;43.216;27.904;2023-07-29T02:50:55;18.41;89.05
67799;SHT30;54596;43.216;27.904;2023-07-29T02:53:22;18.41;89.30
67799;SHT30;54596;43.216;27.904;2023-07-29T02:55:47;18.40;89.50
67799;SHT30;54596;43.216;27.904;2023-07-29T02:58:13;18.37;89.51
67799;SHT30;54596;43.216;27.904;2023-07-29T03:00:38;18.33;89.85
67799;SHT30;54596;43.216;27.904;2023-07-29T03:03:07;18.34;89.87
67799;SHT30;54596;43.216;27.904;2023-07-29T03:05:33;18.39;89.82
67799;SHT30;54596;43.216;27.904;2023-07-29T03:07:58;18.37;89.80
67799;SHT30;54596;43.216;27.904;2023-07-29T03:10:24;18.39;89.69
67799;SHT30;54596;43.216;27.904;2023-07-29T03:12:50;18.39;89.59
67799;SHT30;54596;43.216;27.904;2023-07-29T03:15:16;18.40;89.52
67799;SHT30;54596;43.216;27.904;2023-07-29T03:17:42;18.39;89.46
67799;SHT30;54596;43.216;27.904;2023-07-29T03:20:07;18.41;89.41
67799;SHT30;54596;43.216;27.904;2023-07-29T03:22:33;18.36;89.38
67799;SHT30;54596;43.216;27.904;2023-07-29T03:24:58;18.39;89.47
67799;SHT30;54596;43.216;27.904;2023-07-29T03:27:24;18.40;89.41
67799;SHT30;54596;43.216;27.904;2023-07-29T03:29:49;18.46;89.40
67799;SHT30;54596;43.216;27.904;2023-07-29T03:32:15;18.50;89.18
67799;SHT30;54596;43.216;27.904;2023-07-29T03:34:40;18.50;89.15
67799;SHT30;54596;43.216;27.904;2023-07-29T03:37:06;18.57;89.09
67799;SHT30;54596;43.216;27.904;2023-07-29T03:39:32;18.58;89.00
67799;SHT30;54596;43.216;27.904;2023-07-29T03:41:58;18.61;88.69
67799;SHT30;54596;43.216;27.904;2023-07-29T03:44:23;18.65;88.53
67799;SHT30;54596;43.216;27.904;2023-07-29T03:46:49;18.67;88.44
67799;SHT30;54596;43.216;27.904;2023-07-29T03:49:14;18.71;88.33
67799;SHT30;54596;43.216;27.904;2023-07-29T03:51:40;18.75;87.80
67799;SHT30;54596;43.216;27.904;2023-07-29T03:54:06;18.68;87.59
67799;SHT30;54596;43.216;27.904;2023-07-29T03:56:31;18.77;87.42
67799;SHT30;54596;43.216;27.904;2023-07-29T03:59:04;18.84;87.39
67799;SHT30;54596;43.216;27.904;2023-07-29T04:01:29;18.98;87.05
67799;SHT30;54596;43.216;27.904;2023-07-29T04:03:55;19.03;86.84
67799;SHT30;54596;43.216;27.904;2023-07-29T04:06:21;19.09;86.77
67799;SHT30;54596;43.216;27.904;2023-07-29T04:08:48;19.13;86.68
67799;SHT30;54596;43.216;27.904;2023-07-29T04:11:13;19.18;86.62
67799;SHT30;54596;43.216;27.904;2023-07-29T04:13:39;19.22;86.48
67799;SHT30;54596;43.216;27.904;2023-07-29T04:16:04;19.24;86.33
67799;SHT30;54596;43.216;27.904;2023-07-29T04:18:30;19.23;86.42
67799;SHT30;54596;43.216;27.904;2023-07-29T04:20:55;19.16;86.59
67799;SHT30;54596;43.216;27.904;2023-07-29T04:23:21;19.24;86.41
67799;SHT30;54596;43.216;27.904;2023-07-29T04:25:46;19.27;86.38
67799;SHT30;54596;43.216;27.904;2023-07-29T04:28:12;19.26;86.37
67799;SHT30;54596;43.216;27.904;2023-07-29T04:30:37;19.34;86.24
67799;SHT30;54596;43.216;27.904;2023-07-29T04:33:03;19.44;85.98
67799;SHT30;54596;43.216;27.904;2023-07-29T04:35:28;19.53;85.68
67799;SHT30;54596;43.216;27.904;2023-07-29T04:37:54;19.61;85.61
67799;SHT30;54596;43.216;27.904;2023-07-29T04:40:19;19.65;85.57
67799;SHT30;54596;43.216;27.904;2023-07-29T04:42:45;19.75;85.43
67799;SHT30;54596;43.216;27.904;2023-07-29T04:45:10;19.83;85.17
67799;SHT30;54596;43.216;27.904;2023-07-29T04:47:36;19.96;85.05
67799;SHT30;54596;43.216;27.904;2023-07-29T04:50:02;20.02;85.00
67799;SHT30;54596;43.216;27.904;2023-07-29T04:52:27;20.37;84.46
67799;SHT30;54596;43.216;27.904;2023-07-29T04:54:53;20.45;84.07
67799;SHT30;54596;43.216;27.904;2023-07-29T04:57:18;20.50;84.14
67799;SHT30;54596;43.216;27.904;2023-07-29T04:59:44;20.55;84.18
67799;SHT30;54596;43.216;27.904;2023-07-29T05:02:09;20.75;83.93
67799;SHT30;54596;43.216;27.904;2023-07-29T05:04:35;20.72;83.95
67799;SHT30;54596;43.216;27.904;2023-07-29T05:07:00;20.75;83.75
67799;SHT30;54596;43.216;27.904;2023-07-29T05:09:26;20.89;83.55
67799;SHT30;54596;43.216;27.904;2023-07-29T05:11:51;20.99;83.09
67799;SHT30;54596;43.216;27.904;2023-07-29T05:14:17;21.12;82.66
67799;SHT30;54596;43.216;27.904;2023-07-29T05:16:43;21.27;82.34
67799;SHT30;54596;43.216;27.904;2023-07-29T05:19:09;21.46;82.12
67799;SHT30;54596;43.216;27.904;2023-07-29T05:21:36;21.61;81.93
67799;SHT30;54596;43.216;27.904;2023-07-29T05:24:02;21.84;81.70
67799;SHT30;54596;43.216;27.904;2023-07-29T05:26:27;21.98;81.62
67799;SHT30;54596;43.216;27.904;2023-07-29T05:28:53;22.24;81.10
67799;SHT30;54596;43.216;27.904;2023-07-29T05:31:18;22.54;80.51
67799;SHT30;54596;43.216;27.904;2023-07-29T05:33:44;22.91;79.78
67799;SHT30;54596;43.216;27.904;2023-07-29T05:36:09;23.59;78.34
67799;SHT30;54596;43.216;27.904;2023-07-29T05:38:35;25.89;72.38
67799;SHT30;54596;43.216;27.904;2023-07-29T05:41:00;28.03;67.05
67799;SHT30;54596;43.216;27.904;2023-07-29T05:43:26;30.54;61.43
67799;SHT30;54596;43.216;27.904;2023-07-29T05:45:52;31.83;57.14
67799;SHT30;54596;43.216;27.904;2023-07-29T05:48:19;32.62;56.21
67799;SHT30;54596;43.216;27.904;2023-07-29T05:50:45;33.21;55.15
67799;SHT30;54596;43.216;27.904;2023-07-29T05:53:10;33.38;54.11
67799;SHT30;54596;43.216;27.904;2023-07-29T05:55:36;33.69;53.32
67799;SHT30;54596;43.216;27.904;2023-07-29T05:58:01;34.09;52.31
67799;SHT30;54596;43.216;27.904;2023-07-29T06:00:27;34.19;51.93
67799;SHT30;54596;43.216;27.904;2023-07-29T06:02:52;35.02;50.68
67799;SHT30;54596;43.216;27.904;2023-07-29T06:05:17;35.14;50.36
67799;SHT30;54596;43.216;27.904;2023-07-29T06:07:43;35.59;49.27
67799;SHT30;54596;43.216;27.904;2023-07-29T06:10:12;36.12;48.49
67799;SHT30;54596;43.216;27.904;2023-07-29T06:12:38;36.00;48.00
67799;SHT30;54596;43.216;27.904;2023-07-29T06:15:05;36.23;47.63
67799;SHT30;54596;43.216;27.904;2023-07-29T06:17:30;36.47;47.47
67799;SHT30;54596;43.216;27.904;2023-07-29T06:19:56;36.92;46.97
67799;SHT30;54596;43.216;27.904;2023-07-29T06:22:21;36.85;47.05
67799;SHT30;54596;43.216;27.904;2023-07-29T06:24:47;37.23;46.60
67799;SHT30;54596;43.216;27.904;2023-07-29T06:27:12;37.40;46.29
67799;SHT30;54596;43.216;27.904;2023-07-29T06:29:38;37.02;46.50
67799;SHT30;54596;43.216;27.904;2023-07-29T06:32:04;36.43;47.36
67799;SHT30;54596;43.216;27.904;2023-07-29T06:34:29;36.84;46.31
67799;SHT30;54596;43.216;27.904;2023-07-29T06:36:55;36.43;46.71
67799;SHT30;54596;43.216;27.904;2023-07-29T06:39:20;36.63;46.45
67799;SHT30;54596;43.216;27.904;2023-07-29T06:41:45;36.63;46.24
67799;SHT30;54596;43.216;27.904;2023-07-29T06:44:11;36.54;46.36
67799;SHT30;54596;43.216;27.904;2023-07-29T06:46:36;36.12;46.80
67799;SHT30;54596;43.216;27.904;2023-07-29T06:49:02;35.78;47.59
67799;SHT30;54596;43.216;27.904;2023-07-29T06:51:27;35.48;47.55
67799;SHT30;54596;43.216;27.904;2023-07-29T06:54:01;34.99;48.35
67799;SHT30;54596;43.216;27.904;2023-07-29T06:56:27;35.59;47.44
67799;SHT30;54596;43.216;27.904;2023-07-29T06:58:52;36.37;46.57
67799;SHT30;54596;43.216;27.904;2023-07-29T07:01:18;36.71;45.95
67799;SHT30;54596;43.216;27.904;2023-07-29T07:03:43;37.38;45.06
67799;SHT30;54596;43.216;27.904;2023-07-29T07:06:09;38.04;44.33
67799;SHT30;54596;43.216;27.904;2023-07-29T07:08:34;38.63;43.35
67799;SHT30;54596;43.216;27.904;2023-07-29T07:11:00;39.06;42.64
67799;SHT30;54596;43.216;27.904;2023-07-29T07:13:25;39.35;42.62
67799;SHT30;54596;43.216;27.904;2023-07-29T07:15:54;39.16;42.61
67799;SHT30;54596;43.216;27.904;2023-07-29T07:18:19;39.43;42.24
67799;SHT30;54596;43.216;27.904;2023-07-29T07:20:51;39.56;41.82
67799;SHT30;54596;43.216;27.904;2023-07-29T07:23:17;39.73;41.59
67799;SHT30;54596;43.216;27.904;2023-07-29T07:25:43;40.04;41.36
67799;SHT30;54596;43.216;27.904;2023-07-29T07:28:09;40.09;41.41
67799;SHT30;54596;43.216;27.904;2023-07-29T07:30:35;40.22;40.36
67799;SHT30;54596;43.216;27.904;2023-07-29T07:33:01;40.66;39.97
67799;SHT30;54596;43.216;27.904;2023-07-29T07:35:26;40.29;40.05
67799;SHT30;54596;43.216;27.904;2023-07-29T07:37:52;39.98;40.51
67799;SHT30;54596;43.216;27.904;2023-07-29T07:40:17;39.91;40.15
67799;SHT30;54596;43.216;27.904;2023-07-29T07:42:43;39.65;40.54
67799;SHT30;54596;43.216;27.904;2023-07-29T07:45:09;39.53;40.42
67799;SHT30;54596;43.216;27.904;2023-07-29T07:47:34;38.91;40.88
67799;SHT30;54596;43.216;27.904;2023-07-29T07:50:00;39.35;40.67
67799;SHT30;54596;43.216;27.904;2023-07-29T07:52:25;39.80;39.45
67799;SHT30;54596;43.216;27.904;2023-07-29T07:54:54;39.64;38.95
67799;SHT30;54596;43.216;27.904;2023-07-29T07:57:20;40.09;38.33
67799;SHT30;54596;43.216;27.904;2023-07-29T07:59:46;39.64;38.98
67799;SHT30;54596;43.216;27.904;2023-07-29T08:02:11;39.71;38.11
67799;SHT30;54596;43.216;27.904;2023-07-29T08:04:37;39.46;38.45
67799;SHT30;54596;43.216;27.904;2023-07-29T08:07:02;39.53;37.73
67799;SHT30;54596;43.216;27.904;2023-07-29T08:09:28;39.06;38.15
67799;SHT30;54596;43.216;27.904;2023-07-29T08:11:53;39.84;37.32
67799;SHT30;54596;43.216;27.904;2023-07-29T08:14:19;40.35;36.81
67799;SHT30;54596;43.216;27.904;2023-07-29T08:16:44;40.61;36.26
67799;SHT30;54596;43.216;27.904;2023-07-29T08:19:10;40.99;35.90
67799;SHT30;54596;43.216;27.904;2023-07-29T08:21:36;40.94;35.34
67799;SHT30;54596;43.216;27.904;2023-07-29T08:24:01;40.68;35.32
67799;SHT30;54596;43.216;27.904;2023-07-29T08:26:27;40.74;35.47
67799;SHT30;54596;43.216;27.904;2023-07-29T08:28:52;40.73;35.55
67799;SHT30;54596;43.216;27.904;2023-07-29T08:31:18;39.98;34.40
67799;SHT30;54596;43.216;27.904;2023-07-29T08:33:43;39.12;34.82
67799;SHT30;54596;43.216;27.904;2023-07-29T08:36:09;37.98;35.33
67799;SHT30;54596;43.216;27.904;2023-07-29T08:38:34;37.53;33.51
67799;SHT30;54596;43.216;27.904;2023-07-29T08:43:29;36.02;35.76
67799;SHT30;54596;43.216;27.904;2023-07-29T08:45:58;36.13;36.69
67799;SHT30;54596;43.216;27.904;2023-07-29T08:48:50;35.85;36.97
67799;SHT30;54596;43.216;27.904;2023-07-29T08:51:15;35.70;37.63
67799;SHT30;54596;43.216;27.904;2023-07-29T08:53:42;35.41;37.42
67799;SHT30;54596;43.216;27.904;2023-07-29T08:56:08;35.40;38.82
67799;SHT30;54596;43.216;27.904;2023-07-29T08:58:34;35.20;41.60
67799;SHT30;54596;43.216;27.904;2023-07-29T09:01:00;35.10;40.69
67799;SHT30;54596;43.216;27.904;2023-07-29T09:03:26;34.69;42.80
67799;SHT30;54596;43.216;27.904;2023-07-29T09:05:52;33.83;45.23
67799;SHT30;54596;43.216;27.904;2023-07-29T09:08:19;33.41;46.28
67799;SHT30;54596;43.216;27.904;2023-07-29T09:10:44;32.51;48.32
67799;SHT30;54596;43.216;27.904;2023-07-29T09:13:10;32.27;48.58
67799;SHT30;54596;43.216;27.904;2023-07-29T09:15:36;32.05;49.51
67799;SHT30;54596;43.216;27.904;2023-07-29T09:18:28;31.73;48.12
67799;SHT30;54596;43.216;27.904;2023-07-29T09:20:59;31.51;49.38
67799;SHT30;54596;43.216;27.904;2023-07-29T09:23:25;30.86;50.04
67799;SHT30;54596;43.216;27.904;2023-07-29T09:26:03;30.41;50.85
67799;SHT30;54596;43.216;27.904;2023-07-29T09:28:34;30.34;52.33
67799;SHT30;54596;43.216;27.904;2023-07-29T09:31:00;30.18;52.80
67799;SHT30;54596;43.216;27.904;2023-07-29T09:33:26;30.14;53.81
67799;SHT30;54596;43.216;27.904;2023-07-29T09:35:52;30.05;53.97
67799;SHT30;54596;43.216;27.904;2023-07-29T09:38:17;30.05;55.01
67799;SHT30;54596;43.216;27.904;2023-07-29T09:40:43;30.17;55.91
67799;SHT30;54596;43.216;27.904;2023-07-29T09:43:10;30.07;54.75
67799;SHT30;54596;43.216;27.904;2023-07-29T09:45:36;30.09;52.76
67799;SHT30;54596;43.216;27.904;2023-07-29T09:48:04;30.28;53.23
67799;SHT30;54596;43.216;27.904;2023-07-29T09:50:35;30.24;54.20
67799;SHT30;54596;43.216;27.904;2023-07-29T09:53:01;30.12;54.89
67799;SHT30;54596;43.216;27.904;2023-07-29T09:55:28;30.23;54.28
67799;SHT30;54596;43.216;27.904;2023-07-29T09:57:58;29.99;54.89
67799;SHT30;54596;43.216;27.904;2023-07-29T10:00:30;29.79;55.56
67799;SHT30;54596;43.216;27.904;2023-07-29T10:02:57;29.72;56.02
67799;SHT30;54596;43.216;27.904;2023-07-29T10:05:25;29.68;55.79
67799;SHT30;54596;43.216;27.904;2023-07-29T10:07:51;29.59;56.64
67799;SHT30;54596;43.216;27.904;2023-07-29T10:10:17;29.31;57.61
67799;SHT30;54596;43.216;27.904;2023-07-29T10:12:43;29.35;58.86
67799;SHT30;54596;43.216;27.904;2023-07-29T10:15:08;29.03;58.40
67799;SHT30;54596;43.216;27.904;2023-07-29T10:17:37;28.99;59.08
67799;SHT30;54596;43.216;27.904;2023-07-29T10:20:04;28.64;62.28
67799;SHT30;54596;43.216;27.904;2023-07-29T10:22:35;28.48;64.15
67799;SHT30;54596;43.216;27.904;2023-07-29T10:25:16;28.06;64.88
67799;SHT30;54596;43.216;27.904;2023-07-29T10:27:49;27.97;64.72
67799;SHT30;54596;43.216;27.904;2023-07-29T10:30:17;27.69;65.38
67799;SHT30;54596;43.216;27.904;2023-07-29T10:32:44;27.81;65.79
67799;SHT30;54596;43.216;27.904;2023-07-29T10:35:14;27.59;65.48
67799;SHT30;54596;43.216;27.904;2023-07-29T10:37:40;27.59;65.64
67799;SHT30;54596;43.216;27.904;2023-07-29T10:40:10;27.33;69.50
67799;SHT30;54596;43.216;27.904;2023-07-29T10:42:40;27.24;70.17
67799;SHT30;54596;43.216;27.904;2023-07-29T10:45:24;27.24;71.11
67799;SHT30;54596;43.216;27.904;2023-07-29T10:47:49;27.09;70.45
67799;SHT30;54596;43.216;27.904;2023-07-29T10:50:19;26.75;68.62
67799;SHT30;54596;43.216;27.904;2023-07-29T10:52:52;26.62;71.71
67799;SHT30;54596;43.216;27.904;2023-07-29T10:55:33;26.62;72.85
67799;SHT30;54596;43.216;27.904;2023-07-29T10:58:11;26.33;73.46
67799;SHT30;54596;43.216;27.904;2023-07-29T11:00:38;26.17;73.15
67799;SHT30;54596;43.216;27.904;2023-07-29T11:03:06;26.10;73.28
67799;SHT30;54596;43.216;27.904;2023-07-29T11:08:28;26.07;73.15
67799;SHT30;54596;43.216;27.904;2023-07-29T11:11:04;26.19;73.53
67799;SHT30;54596;43.216;27.904;2023-07-29T11:13:31;26.17;71.33
67799;SHT30;54596;43.216;27.904;2023-07-29T11:15:57;26.04;73.59
67799;SHT30;54596;43.216;27.904;2023-07-29T11:18:29;25.57;75.39
67799;SHT30;54596;43.216;27.904;2023-07-29T11:20:56;25.62;74.99
67799;SHT30;54596;43.216;27.904;2023-07-29T11:23:33;25.90;74.23
67799;SHT30;54596;43.216;27.904;2023-07-29T11:25:59;25.78;74.38
67799;SHT30;54596;43.216;27.904;2023-07-29T11:28:26;25.81;73.83
67799;SHT30;54596;43.216;27.904;2023-07-29T11:30:52;25.75;74.44
67799;SHT30;54596;43.216;27.904;2023-07-29T11:33:24;25.88;74.64
67799;SHT30;54596;43.216;27.904;2023-07-29T11:35:50;25.78;75.29
67799;SHT30;54596;43.216;27.904;2023-07-29T11:38:17;25.71;76.06
67799;SHT30;54596;43.216;27.904;2023-07-29T11:40:42;25.65;76.44
67799;SHT30;54596;43.216;27.904;2023-07-29T11:43:08;25.84;76.44
67799;SHT30;54596;43.216;27.904;2023-07-29T11:45:33;25.75;76.17
67799;SHT30;54596;43.216;27.904;2023-07-29T11:48:01;25.76;76.15
67799;SHT30;54596;43.216;27.904;2023-07-29T11:50:26;25.95;75.91
67799;SHT30;54596;43.216;27.904;2023-07-29T11:52:52;25.93;76.21
67799;SHT30;54596;43.216;27.904;2023-07-29T11:55:18;26.16;75.18
67799;SHT30;54596;43.216;27.904;2023-07-29T11:57:46;26.38;73.65
67799;SHT30;54596;43.216;27.904;2023-07-29T12:00:16;26.36;73.72
67799;SHT30;54596;43.216;27.904;2023-07-29T12:02:44;26.45;73.39
67799;SHT30;54596;43.216;27.904;2023-07-29T12:05:12;26.61;73.42
67799;SHT30;54596;43.216;27.904;2023-07-29T12:07:39;26.49;68.94
67799;SHT30;54596;43.216;27.904;2023-07-29T12:10:05;26.58;69.67
67799;SHT30;54596;43.216;27.904;2023-07-29T12:12:31;26.64;69.21
67799;SHT30;54596;43.216;27.904;2023-07-29T12:14:57;26.57;67.58
67799;SHT30;54596;43.216;27.904;2023-07-29T12:17:23;26.52;69.56
67799;SHT30;54596;43.216;27.904;2023-07-29T12:19:48;26.55;68.98
67799;SHT30;54596;43.216;27.904;2023-07-29T12:22:19;26.58;69.58
67799;SHT30;54596;43.216;27.904;2023-07-29T12:24:44;26.72;69.42
67799;SHT30;54596;43.216;27.904;2023-07-29T12:27:12;26.58;67.23
67799;SHT30;54596;43.216;27.904;2023-07-29T12:29:42;26.72;67.49
67799;SHT30;54596;43.216;27.904;2023-07-29T12:32:08;26.75;66.77
67799;SHT30;54596;43.216;27.904;2023-07-29T12:34:35;26.78;65.62
67799;SHT30;54596;43.216;27.904;2023-07-29T12:37:02;26.99;66.79
67799;SHT30;54596;43.216;27.904;2023-07-29T12:39:30;27.02;68.03
67799;SHT30;54596;43.216;27.904;2023-07-29T12:41:58;26.98;65.41
67799;SHT30;54596;43.216;27.904;2023-07-29T12:44:25;27.06;64.51
67799;SHT30;54596;43.216;27.904;2023-07-29T12:46:51;27.09;64.96
67799;SHT30;54596;43.216;27.904;2023-07-29T12:49:17;26.83;63.65
67799;SHT30;54596;43.216;27.904;2023-07-29T12:51:42;26.85;63.85
67799;SHT30;54596;43.216;27.904;2023-07-29T12:54:08;26.93;64.17
67799;SHT30;54596;43.216;27.904;2023-07-29T12:56:34;26.89;63.89
67799;SHT30;54596;43.216;27.904;2023-07-29T12:59:00;26.88;64.55
67799;SHT30;54596;43.216;27.904;2023-07-29T13:01:27;26.96;64.08
67799;SHT30;54596;43.216;27.904;2023-07-29T13:03:53;27.00;63.85
67799;SHT30;54596;43.216;27.904;2023-07-29T13:06:18;26.98;62.71
67799;SHT30;54596;43.216;27.904;2023-07-29T13:08:45;26.96;62.22
67799;SHT30;54596;43.216;27.904;2023-07-29T13:11:11;27.00;62.57
67799;SHT30;54596;43.216;27.904;2023-07-29T13:13:37;26.75;63.16
67799;SHT30;54596;43.216;27.904;2023-07-29T13:16:02;26.76;63.41
67799;SHT30;54596;43.216;27.904;2023-07-29T13:18:28;26.74;65.31
67799;SHT30;54596;43.216;27.904;2023-07-29T13:20:54;26.64;65.12
67799;SHT30;54596;43.216;27.904;2023-07-29T13:23:19;26.65;66.67
67799;SHT30;54596;43.216;27.904;2023-07-29T13:25:45;26.74;66.60
67799;SHT30;54596;43.216;27.904;2023-07-29T13:28:11;26.81;66.15
67799;SHT30;54596;43.216;27.904;2023-07-29T13:30:41;26.89;66.52
67799;SHT30;54596;43.216;27.904;2023-07-29T13:33:07;27.00;68.40
67799;SHT30;54596;43.216;27.904;2023-07-29T13:35:32;27.14;67.69
67799;SHT30;54596;43.216;27.904;2023-07-29T13:37:58;27.20;67.82
67799;SHT30;54596;43.216;27.904;2023-07-29T13:40:23;27.10;69.18
67799;SHT30;54596;43.216;27.904;2023-07-29T13:42:49;27.14;68.73
67799;SHT30;54596;43.216;27.904;2023-07-29T13:45:14;26.99;69.70
67799;SHT30;54596;43.216;27.904;2023-07-29T13:47:40;26.86;70.61
67799;SHT30;54596;43.216;27.904;2023-07-29T13:50:06;26.79;69.77
67799;SHT30;54596;43.216;27.904;2023-07-29T13:52:35;26.65;70.57
67799;SHT30;54596;43.216;27.904;2023-07-29T13:55:01;26.64;70.29
67799;SHT30;54596;43.216;27.904;2023-07-29T13:57:26;26.45;70.71
67799;SHT30;54596;43.216;27.904;2023-07-29T13:59:53;26.31;69.32
67799;SHT30;54596;43.216;27.904;2023-07-29T14:02:19;26.34;69.84
67799;SHT30;54596;43.216;27.904;2023-07-29T14:04:45;26.31;69.41
67799;SHT30;54596;43.216;27.904;2023-07-29T14:07:10;26.41;70.79
67799;SHT30;54596;43.216;27.904;2023-07-29T14:09:36;26.40;71.47
67799;SHT30;54596;43.216;27.904;2023-07-29T14:12:02;26.34;71.92
67799;SHT30;54596;43.216;27.904;2023-07-29T14:14:28;26.23;71.04
67799;SHT30;54596;43.216;27.904;2023-07-29T14:16:54;26.10;71.87
67799;SHT30;54596;43.216;27.904;2023-07-29T14:19:20;26.19;70.85
67799;SHT30;54596;43.216;27.904;2023-07-29T14:21:45;26.14;70.22
67799;SHT30;54596;43.216;27.904;2023-07-29T14:24:11;26.02;71.73
67799;SHT30;54596;43.216;27.904;2023-07-29T14:26:36;26.03;71.37
67799;SHT30;54596;43.216;27.904;2023-07-29T14:29:02;25.97;70.87
67799;SHT30;54596;43.216;27.904;2023-07-29T14:31:27;25.99;71.57
67799;SHT30;54596;43.216;27.904;2023-07-29T14:33:52;25.89;72.32
67799;SHT30;54596;43.216;27.904;2023-07-29T14:36:18;25.86;72.27
67799;SHT30;54596;43.216;27.904;2023-07-29T14:38:43;25.84;72.35
67799;SHT30;54596;43.216;27.904;2023-07-29T14:41:09;25.68;73.40
67799;SHT30;54596;43.216;27.904;2023-07-29T14:43:35;25.65;74.01
67799;SHT30;54596;43.216;27.904;2023-07-29T14:46:01;25.54;74.63
67799;SHT30;54596;43.216;27.904;2023-07-29T14:48:27;25.45;73.83
67799;SHT30;54596;43.216;27.904;2023-07-29T14:50:52;25.44;74.28
67799;SHT30;54596;43.216;27.904;2023-07-29T14:53:18;25.43;74.86
67799;SHT30;54596;43.216;27.904;2023-07-29T14:55:43;25.37;74.37
67799;SHT30;54596;43.216;27.904;2023-07-29T14:58:09;25.37;73.91
67799;SHT30;54596;43.216;27.904;2023-07-29T15:00:35;25.41;73.94
67799;SHT30;54596;43.216;27.904;2023-07-29T15:03:00;25.43;74.87
67799;SHT30;54596;43.216;27.904;2023-07-29T15:05:26;25.47;75.42
67799;SHT30;54596;43.216;27.904;2023-07-29T15:07:52;25.38;75.20
67799;SHT30;54596;43.216;27.904;2023-07-29T15:10:17;25.22;75.05
67799;SHT30;54596;43.216;27.904;2023-07-29T15:12:44;25.20;76.30
67799;SHT30;54596;43.216;27.904;2023-07-29T15:15:10;25.16;76.68
67799;SHT30;54596;43.216;27.904;2023-07-29T15:17:36;25.28;76.76
67799;SHT30;54596;43.216;27.904;2023-07-29T15:20:02;25.16;75.83
67799;SHT30;54596;43.216;27.904;2023-07-29T15:22:29;25.07;76.88
67799;SHT30;54596;43.216;27.904;2023-07-29T15:24:54;24.99;77.33